Time;durP1;ratioP1;P1;durP2;ratioP2;P2;SDS_P1;SDS_P2;PMS_P1;PMS_P2;Temp;Humidity;BMP_temperature;BMP_pressure;BME280_temperature;BME280_humidity;BME280_pressure;Samples;Min_cycle;Max_cycle;Signal;HPM_P1;HPM_P2
2022/07/23 00:01:31;;;;;;;9.63;3.58;;;;;;;23.51;50.97;100508.69;5014877;28;20036;-78
2022/07/23 00:03:57;;;;;;;7.93;3.55;;;;;;;23.36;51.10;100501.91;5015229;28;20034;-79
2022/07/23 00:06:24;;;;;;;9.82;3.72;;;;;;;23.39;51.30;100522.06;5016285;28;20037;-77
2022/07/23 00:08:50;;;;;;;9.25;3.67;;;;;;;23.30;51.37;100509.91;5016845;28;20033;-78
2022/07/23 00:11:16;;;;;;;11.20;3.88;;;;;;;23.35;51.11;100510.72;5016771;28;20554;-78
2022/07/23 00:16:15;;;;;;;7.03;3.70;;;;;;;23.60;50.33;100489.22;4991431;28;20105;-77
2022/07/23 00:18:41;;;;;;;10.23;3.80;;;;;;;23.65;51.61;100516.41;4981637;28;20470;-78
2022/07/23 00:21:07;;;;;;;9.65;3.08;;;;;;;23.47;52.64;100500.91;4989918;28;20501;-78
2022/07/23 00:23:33;;;;;;;14.05;3.30;;;;;;;22.75;52.63;100444.00;4997954;28;20023;-78
2022/07/23 00:25:58;;;;;;;10.88;3.92;;;;;;;23.33;51.93;100506.34;4997950;28;20528;-78
2022/07/23 00:28:24;;;;;;;9.85;3.22;;;;;;;23.36;52.62;100514.22;4997449;28;20040;-75
2022/07/23 00:30:49;;;;;;;32.38;23.42;;;;;;;23.21;53.33;100505.66;4979125;28;20038;-79
2022/07/23 00:33:15;;;;;;;13.43;3.95;;;;;;;23.42;52.75;100483.38;4996644;28;20022;-80
2022/07/23 00:35:41;;;;;;;11.38;3.58;;;;;;;23.19;52.53;100493.41;4996692;28;20065;-78
2022/07/23 00:38:09;;;;;;;8.43;3.28;;;;;;;23.25;52.71;100514.38;4979420;28;20459;-79
2022/07/23 00:40:35;;;;;;;13.85;3.70;;;;;;;23.23;52.59;100495.13;4996878;28;20030;-79
2022/07/23 00:43:01;;;;;;;10.95;3.50;;;;;;;23.29;52.97;100508.19;4992488;28;20038;-78
2022/07/23 00:45:27;;;;;;;10.93;3.50;;;;;;;23.31;52.91;100508.16;4993234;28;20031;-79
2022/07/23 00:47:53;;;;;;;13.98;3.58;;;;;;;22.96;53.36;100481.41;4997149;28;20018;-78
2022/07/23 00:50:18;;;;;;;6.00;3.10;;;;;;;23.01;53.15;100518.22;4996829;28;20029;-77
2022/07/23 00:52:44;;;;;;;7.43;2.97;;;;;;;22.91;53.06;100504.31;4997238;28;20022;-78
2022/07/23 00:55:11;;;;;;;6.68;3.60;;;;;;;22.42;52.95;100422.47;4996999;28;20041;-77
2022/07/23 00:57:38;;;;;;;5.85;3.45;;;;;;;23.02;52.49;100504.16;4997077;28;20217;-78
2022/07/23 01:00:12;;;;;;;8.18;3.08;;;;;;;23.04;53.19;100500.63;4994938;28;20030;-78
2022/07/23 01:02:39;;;;;;;8.38;3.30;;;;;;;22.96;52.82;100465.63;4985274;28;20034;-77
2022/07/23 01:05:05;;;;;;;6.93;3.67;;;;;;;23.21;52.03;100504.78;4990474;28;20033;-79
2022/07/23 01:07:31;;;;;;;7.72;3.28;;;;;;;23.18;52.37;100491.66;4994066;28;20104;-80
2022/07/23 01:09:57;;;;;;;7.35;3.10;;;;;;;22.83;52.63;100414.91;4986139;28;20022;-80
2022/07/23 01:12:22;;;;;;;7.80;3.53;;;;;;;23.52;52.37;100509.59;4991993;28;20037;-80
2022/07/23 01:14:59;;;;;;;5.43;3.30;;;;;;;23.47;52.19;100488.56;4993713;28;20050;-80
2022/07/23 01:17:25;;;;;;;6.85;3.10;;;;;;;23.68;52.54;100500.53;4992442;28;20030;-81
2022/07/23 01:19:51;;;;;;;11.43;2.90;;;;;;;23.77;52.32;100498.66;4971837;28;20389;-82
2022/07/23 01:22:19;;;;;;;7.93;3.75;;;;;;;23.88;52.55;100488.78;4975387;28;20084;-80
2022/07/23 01:24:45;;;;;;;9.60;3.72;;;;;;;23.72;53.74;100482.91;4988519;28;20125;-80
2022/07/23 01:27:12;;;;;;;14.20;4.10;;;;;;;23.74;54.77;100495.16;4988475;28;20026;-80
2022/07/23 01:29:39;;;;;;;9.52;4.38;;;;;;;23.61;55.50;100485.72;4972622;28;20042;-80
2022/07/23 01:32:06;;;;;;;16.25;5.15;;;;;;;23.54;57.17;100497.25;4990053;28;20027;-86
2022/07/23 01:34:32;;;;;;;21.27;4.13;;;;;;;23.34;54.89;100493.19;4993439;28;20037;-83
2022/07/23 01:36:57;;;;;;;12.45;4.28;;;;;;;23.14;52.87;100503.09;4972981;28;20026;-82
2022/07/23 01:39:23;;;;;;;9.50;3.35;;;;;;;22.76;52.42;100464.13;4969493;28;20043;-84
2022/07/23 01:41:48;;;;;;;10.73;3.20;;;;;;;23.06;52.15;100509.34;4990179;28;20029;-84
2022/07/23 01:47:36;;;;;;;7.55;3.10;;;;;;;21.34;54.34;100419.16;5218230;23;20120;-83
2022/07/23 01:50:01;;;;;;;9.88;3.40;;;;;;;21.56;54.61;100466.31;4995640;28;20030;-84
2022/07/23 01:52:27;;;;;;;8.68;3.20;;;;;;;21.40;55.31;100462.88;5011047;28;20064;-85
2022/07/23 01:54:53;;;;;;;5.53;2.90;;;;;;;21.72;55.60;100505.56;4995646;28;20029;-85
2022/07/23 01:57:18;;;;;;;10.77;3.08;;;;;;;21.73;55.23;100495.06;4995194;28;20040;-83
2022/07/23 01:59:43;;;;;;;12.52;3.10;;;;;;;21.40;55.36;100449.75;5012931;28;20034;-85
2022/07/23 02:02:09;;;;;;;8.98;3.28;;;;;;;21.68;55.21;100502.09;4995398;28;20488;-80
2022/07/23 02:04:36;;;;;;;7.65;3.00;;;;;;;21.63;55.54;100499.53;5013014;28;20615;-81
2022/07/23 02:07:02;;;;;;;7.88;3.38;;;;;;;21.28;56.06;100471.75;5013013;28;20033;-83
2022/07/23 02:09:48;;;;;;;7.43;3.00;;;;;;;21.24;56.25;100479.66;5015957;28;20041;-83
2022/07/23 02:12:14;;;;;;;8.68;3.50;;;;;;;21.40;56.79;100497.03;4960811;28;20026;-81
2022/07/23 02:14:39;;;;;;;9.73;3.60;;;;;;;21.34;56.29;100455.06;4969960;28;20480;-83
2022/07/23 02:17:05;;;;;;;11.40;3.40;;;;;;;21.54;56.03;100467.16;4971357;28;20050;-81
2022/07/23 02:19:30;;;;;;;11.32;3.55;;;;;;;21.66;55.47;100490.75;4971296;28;20042;-80
2022/07/23 02:21:56;;;;;;;8.50;3.47;;;;;;;21.78;55.34;100488.00;4970876;28;20046;-81
2022/07/23 02:24:21;;;;;;;6.68;3.22;;;;;;;22.03;54.84;100498.28;4971330;28;20182;-81
2022/07/23 02:26:47;;;;;;;6.90;3.58;;;;;;;22.16;54.36;100501.66;4954822;28;20117;-77
2022/07/23 02:29:12;;;;;;;8.90;3.80;;;;;;;22.28;53.47;100492.75;4938035;28;20037;-74
2022/07/23 02:31:38;;;;;;;9.73;3.20;;;;;;;22.40;54.09;100489.16;4970753;28;20034;-74
2022/07/23 02:34:04;;;;;;;8.30;3.40;;;;;;;22.56;53.25;100492.47;4970587;28;20038;-73
2022/07/23 02:36:30;;;;;;;6.30;3.28;;;;;;;22.63;53.48;100494.16;4970814;28;20042;-74
2022/07/23 02:38:56;;;;;;;9.15;3.58;;;;;;;22.33;53.24;100455.88;4970545;28;20109;-74
2022/07/23 02:41:22;;;;;;;7.80;3.53;;;;;;;22.23;53.24;100441.97;4970489;28;20038;-72
2022/07/23 02:43:48;;;;;;;7.53;3.92;;;;;;;22.69;53.30;100509.84;5001078;28;20096;-73
2022/07/23 02:46:13;;;;;;;9.93;3.53;;;;;;;22.65;52.93;100502.00;5011310;28;20451;-74
2022/07/23 02:48:39;;;;;;;7.38;3.30;;;;;;;22.45;53.80;100497.84;5011578;28;20046;-74
2022/07/23 02:51:05;;;;;;;10.68;3.63;;;;;;;22.21;54.96;100510.34;5010294;28;20068;-74
2022/07/23 02:53:30;;;;;;;12.95;3.58;;;;;;;21.67;56.55;100521.38;5011345;28;20051;-73
2022/07/23 02:55:56;;;;;;;6.20;3.38;;;;;;;21.77;56.73;100520.41;5011006;28;20033;-74
2022/07/23 02:58:21;;;;;;;13.48;4.35;;;;;;;20.94;59.89;100513.06;4993567;28;20038;-74
2022/07/23 03:00:47;;;;;;;11.13;4.20;;;;;;;21.07;59.69;100530.50;5011433;28;20057;-73
2022/07/23 03:03:12;;;;;;;10.55;4.78;;;;;;;21.31;60.03;100539.13;5011030;28;20029;-73
2022/07/23 03:05:38;;;;;;;13.68;4.78;;;;;;;20.77;60.69;100474.69;5011008;28;20033;-73
2022/07/23 03:08:04;;;;;;;8.48;4.78;;;;;;;20.44;61.79;100452.94;5011055;28;20034;-74
2022/07/23 03:10:29;;;;;;;10.90;5.05;;;;;;;21.03;61.23;100520.88;5010882;28;20057;-74
2022/07/23 03:12:54;;;;;;;12.13;4.97;;;;;;;21.03;59.70;100484.16;5010779;28;20026;-74
2022/07/23 03:15:20;;;;;;;21.33;5.13;;;;;;;21.49;59.18;100538.97;5010562;28;20393;-74
2022/07/23 03:17:45;;;;;;;11.43;5.00;;;;;;;21.72;58.11;100535.34;5011308;28;20499;-74
2022/07/23 03:20:11;;;;;;;11.93;4.70;;;;;;;21.85;58.03;100546.63;5010957;28;20026;-74
2022/07/23 03:22:36;;;;;;;8.93;4.90;;;;;;;21.90;58.08;100544.81;5010737;28;20030;-75
2022/07/23 03:25:02;;;;;;;8.60;4.38;;;;;;;21.57;58.62;100486.44;5010355;28;20076;-75
2022/07/23 03:27:30;;;;;;;12.23;4.72;;;;;;;21.97;57.98;100529.91;5010882;28;20131;-74
2022/07/23 03:29:58;;;;;;;13.07;5.28;;;;;;;22.07;57.88;100542.06;5010642;28;20136;-76
2022/07/23 03:32:24;;;;;;;15.35;5.00;;;;;;;22.21;57.23;100544.53;4960306;28;20116;-74
2022/07/23 03:34:50;;;;;;;10.10;4.60;;;;;;;22.14;56.56;100504.31;4992929;28;20028;-76
2022/07/23 03:37:16;;;;;;;11.52;4.90;;;;;;;22.26;56.67;100523.47;5007893;28;20064;-76
2022/07/23 03:39:42;;;;;;;11.25;4.35;;;;;;;22.06;56.11;100487.72;5010367;28;20427;-76
2022/07/23 03:42:07;;;;;;;12.68;4.80;;;;;;;22.30;56.92;100536.56;5009529;28;20137;-75
2022/07/23 03:44:33;;;;;;;10.38;4.75;;;;;;;22.11;56.96;100530.63;5010411;28;20022;-76
2022/07/23 03:46:59;;;;;;;9.50;4.13;;;;;;;22.21;57.10;100538.44;5010391;28;20057;-75
2022/07/23 03:49:24;;;;;;;12.07;4.90;;;;;;;21.98;57.10;100490.44;5010048;28;20480;-76
2022/07/23 03:51:50;;;;;;;16.08;4.70;;;;;;;22.43;56.88;100542.59;5010434;28;20029;-74
2022/07/23 03:54:16;;;;;;;9.95;4.40;;;;;;;22.42;56.87;100538.22;5010041;28;20632;-73
2022/07/23 03:56:42;;;;;;;6.43;4.18;;;;;;;22.26;57.73;100558.50;5010124;28;20042;-75
2022/07/23 03:59:08;;;;;;;8.70;4.32;;;;;;;21.90;57.87;100491.41;5009744;28;20076;-75
2022/07/23 04:01:34;;;;;;;9.93;4.28;;;;;;;22.21;58.07;100541.91;5010038;28;20033;-74
2022/07/23 04:04:00;;;;;;;6.43;4.15;;;;;;;22.31;57.88;100545.34;5009926;28;20510;-75
2022/07/23 04:06:25;;;;;;;9.07;4.55;;;;;;;22.35;57.38;100539.13;5010121;28;20516;-73
2022/07/23 04:08:51;;;;;;;10.63;4.28;;;;;;;22.42;57.83;100551.38;4992634;28;20546;-74
2022/07/23 04:11:16;;;;;;;10.60;4.43;;;;;;;22.32;57.70;100536.56;5009592;28;20140;-75
2022/07/23 04:13:42;;;;;;;12.65;4.60;;;;;;;22.41;57.92;100552.25;5010102;28;20408;-77
2022/07/23 04:16:07;;;;;;;9.00;4.80;;;;;;;22.32;58.12;100539.19;5009977;28;20033;-74
2022/07/23 04:18:33;;;;;;;13.40;4.28;;;;;;;22.31;58.63;100550.59;5009923;28;20511;-74
2022/07/23 04:20:58;;;;;;;9.32;4.68;;;;;;;22.29;58.81;100547.09;5010101;28;20596;-74
2022/07/23 04:23:23;;;;;;;18.58;5.45;;;;;;;22.32;59.17;100551.44;5009904;28;20391;-74
2022/07/23 04:25:49;;;;;;;12.50;4.80;;;;;;;22.40;59.08;100547.88;5009732;28;20026;-74
2022/07/23 04:28:14;;;;;;;16.05;5.38;;;;;;;22.39;59.34;100554.06;5009362;28;20041;-75
2022/07/23 04:30:40;;;;;;;10.52;5.00;;;;;;;22.24;60.21;100541.00;5009781;28;20026;-74
2022/07/23 04:33:06;;;;;;;8.70;5.13;;;;;;;22.29;59.80;100557.59;5009796;28;20038;-74
2022/07/23 04:35:36;;;;;;;12.57;4.95;;;;;;;22.03;59.90;100506.19;5009371;28;20030;-74
2022/07/23 04:38:02;;;;;;;10.13;5.40;;;;;;;21.90;59.53;100489.63;4962953;28;20065;-74
2022/07/23 04:40:28;;;;;;;9.57;4.90;;;;;;;22.27;59.65;100576.03;5013175;28;20033;-75
2022/07/23 04:42:54;;;;;;;12.52;5.30;;;;;;;22.28;59.14;100558.50;5013409;28;20029;-75
2022/07/23 04:45:19;;;;;;;14.43;5.03;;;;;;;22.20;58.87;100549.81;5013010;28;20030;-74
2022/07/23 04:47:46;;;;;;;8.68;4.78;;;;;;;22.23;59.54;100562.94;5012911;28;20133;-74
2022/07/23 04:50:11;;;;;;;15.18;4.80;;;;;;;21.91;59.86;100499.25;5013196;28;20105;-75
2022/07/23 04:52:37;;;;;;;11.93;5.40;;;;;;;22.46;59.22;100566.22;5013186;28;20104;-73
2022/07/23 04:55:03;;;;;;;9.40;5.13;;;;;;;22.53;59.43;100566.16;5012632;28;20041;-74
2022/07/23 04:57:29;;;;;;;9.95;4.97;;;;;;;22.60;58.73;100566.09;5012931;28;20144;-73
2022/07/23 04:59:54;;;;;;;19.17;5.47;;;;;;;22.39;59.09;100521.59;5012962;28;20567;-74
2022/07/23 05:02:19;;;;;;;7.82;4.47;;;;;;;22.76;58.27;100569.41;5013202;28;20052;-74
2022/07/23 05:04:45;;;;;;;19.92;5.50;;;;;;;22.75;57.91;100548.38;5012945;28;20034;-74
2022/07/23 05:07:11;;;;;;;14.32;5.07;;;;;;;22.93;58.11;100557.81;5013018;28;20032;-74
2022/07/23 05:09:37;;;;;;;16.20;5.03;;;;;;;22.98;58.35;100566.53;5012892;28;20122;-74
2022/07/23 05:12:02;;;;;;;8.95;4.50;;;;;;;22.65;58.15;100508.13;5012241;28;20116;-74
2022/07/23 05:14:28;;;;;;;17.92;5.07;;;;;;;23.12;58.00;100566.34;4995091;28;20034;-74
2022/07/23 05:16:54;;;;;;;42.00;6.82;;;;;;;23.29;57.54;100567.88;5012690;28;20042;-74
2022/07/23 05:19:19;;;;;;;18.75;5.40;;;;;;;23.36;57.31;100565.13;5012631;28;20060;-74
2022/07/23 05:21:44;;;;;;;11.10;5.90;;;;;;;23.47;57.07;100564.13;5012614;28;20026;-74
2022/07/23 05:24:10;;;;;;;17.20;6.15;;;;;;;23.45;57.32;100548.31;5012277;28;20528;-74
2022/07/23 05:26:35;;;;;;;18.98;6.90;;;;;;;23.40;57.07;100544.88;5012332;28;20034;-77
2022/07/23 05:29:01;;;;;;;12.35;6.35;;;;;;;23.61;56.73;100548.09;5012472;28;20751;-75
2022/07/23 05:31:26;;;;;;;7.78;6.03;;;;;;;23.75;56.29;100562.81;5012981;28;20087;-74
2022/07/23 05:33:52;;;;;;;12.38;6.70;;;;;;;23.84;56.20;100555.63;5012551;28;20021;-74
2022/07/23 05:36:17;;;;;;;12.07;6.78;;;;;;;23.80;55.65;100568.00;5012290;28;20033;-74
2022/07/23 05:38:43;;;;;;;12.02;7.55;;;;;;;23.63;55.62;100506.75;5011791;28;20032;-75
2022/07/23 05:41:08;;;;;;;12.77;8.43;;;;;;;23.97;54.60;100559.81;4994616;28;20021;-75
2022/07/23 05:43:34;;;;;;;15.15;6.70;;;;;;;24.08;54.49;100559.66;5012328;28;20056;-74
2022/07/23 05:45:59;;;;;;;11.07;7.70;;;;;;;24.14;54.32;100558.66;5012289;28;20514;-74
2022/07/23 05:48:25;;;;;;;12.90;7.70;;;;;;;24.06;53.88;100546.50;5011505;28;20089;-74
2022/07/23 05:50:50;;;;;;;13.45;7.70;;;;;;;24.21;53.73;100547.09;5011982;28;20080;-75
2022/07/23 05:53:16;;;;;;;12.30;7.75;;;;;;;24.32;53.70;100555.69;5011933;28;20026;-75
2022/07/23 05:55:41;;;;;;;15.75;8.48;;;;;;;24.41;53.96;100551.13;5011427;28;20040;-74
2022/07/23 05:58:07;;;;;;;13.63;8.07;;;;;;;24.48;53.58;100553.63;5011707;28;20449;-74
2022/07/23 06:00:32;;;;;;;12.65;8.18;;;;;;;24.62;52.78;100557.78;5011988;28;20109;-74
2022/07/23 06:02:58;;;;;;;12.27;7.60;;;;;;;24.64;53.13;100559.47;5011823;28;20041;-75
2022/07/23 06:05:24;;;;;;;17.60;8.35;;;;;;;24.44;54.54;100551.09;5011996;28;20049;-74
2022/07/23 06:07:49;;;;;;;19.05;8.05;;;;;;;24.31;53.77;100518.78;5012013;28;20038;-73
2022/07/23 06:10:15;;;;;;;14.35;6.80;;;;;;;24.65;53.66;100557.72;5011265;28;20472;-74
2022/07/23 06:12:40;;;;;;;13.32;7.45;;;;;;;24.69;52.29;100555.00;5011846;28;20042;-73
2022/07/23 06:15:07;;;;;;;17.67;6.32;;;;;;;24.70;52.87;100548.81;5011675;28;20033;-73
2022/07/23 06:17:32;;;;;;;11.30;6.68;;;;;;;24.78;52.87;100540.75;5011723;28;20099;-74
2022/07/23 06:19:58;;;;;;;29.52;13.30;;;;;;;24.83;52.80;100538.88;5011286;28;20480;-73
2022/07/23 06:22:23;;;;;;;24.30;9.30;;;;;;;24.96;52.33;100552.69;5011578;28;20105;-74
2022/07/23 06:24:50;;;;;;;12.98;8.13;;;;;;;25.14;52.00;100547.91;5011343;28;20026;-74
2022/07/23 06:27:16;;;;;;;14.18;6.75;;;;;;;25.19;51.35;100540.75;5011540;28;20074;-73
2022/07/23 06:29:41;;;;;;;31.05;14.40;;;;;;;25.30;51.79;100540.50;5011495;28;20479;-71
2022/07/23 06:32:07;;;;;;;14.48;7.60;;;;;;;25.00;51.49;100477.78;5011797;28;20025;-72
2022/07/23 06:34:33;;;;;;;12.60;6.55;;;;;;;25.39;51.77;100531.53;5011406;28;20065;-74
2022/07/23 06:36:59;;;;;;;18.13;9.63;;;;;;;25.36;52.15;100495.44;5011235;28;20061;-74
2022/07/23 06:39:24;;;;;;;11.65;6.22;;;;;;;25.48;52.54;100528.66;5010842;28;20081;-74
2022/07/23 06:41:50;;;;;;;11.32;6.47;;;;;;;25.60;52.24;100533.66;5010933;28;20029;-73
2022/07/23 06:44:15;;;;;;;10.30;5.70;;;;;;;25.73;51.73;100520.13;5010920;28;20061;-74
2022/07/23 06:46:41;;;;;;;10.50;6.40;;;;;;;25.61;51.02;100477.22;5010808;28;20030;-74
2022/07/23 06:49:06;;;;;;;13.40;5.88;;;;;;;25.82;52.35;100511.94;5010520;28;20030;-74
2022/07/23 06:51:32;;;;;;;11.95;6.13;;;;;;;25.66;51.20;100455.97;5010829;28;20029;-74
2022/07/23 06:53:58;;;;;;;11.05;6.18;;;;;;;26.06;51.66;100504.34;5010208;28;20025;-73
2022/07/23 06:56:23;;;;;;;9.38;5.60;;;;;;;26.26;51.78;100525.81;5011030;28;20464;-74
2022/07/23 06:58:49;;;;;;;13.82;5.97;;;;;;;26.35;52.04;100522.03;5010734;28;20060;-74
2022/07/23 07:01:14;;;;;;;21.52;6.03;;;;;;;26.43;51.52;100527.13;5010657;28;20030;-74
2022/07/23 07:03:40;;;;;;;14.05;5.50;;;;;;;26.43;50.78;100505.94;4993211;28;20117;-72
2022/07/23 07:06:05;;;;;;;15.80;5.30;;;;;;;26.47;50.90;100487.28;5010687;28;20041;-73
2022/07/23 07:08:31;;;;;;;9.30;5.40;;;;;;;26.53;51.43;100480.97;5009987;28;20056;-73
2022/07/23 07:10:56;;;;;;;11.27;5.47;;;;;;;26.63;50.77;100468.28;5010817;28;20026;-74
2022/07/23 07:13:21;;;;;;;8.82;5.50;;;;;;;27.07;50.08;100521.75;4992991;28;20061;-74
2022/07/23 07:15:47;;;;;;;9.60;4.95;;;;;;;27.12;50.88;100521.59;4993038;28;20479;-74
2022/07/23 07:18:12;;;;;;;10.13;5.53;;;;;;;27.24;50.50;100525.63;5010413;28;20038;-74
2022/07/23 07:20:38;;;;;;;8.98;5.43;;;;;;;27.33;49.54;100519.16;5010245;28;20022;-73
2022/07/23 07:23:03;;;;;;;10.20;5.20;;;;;;;27.24;49.50;100491.19;5010031;28;20030;-74
2022/07/23 07:25:29;;;;;;;9.75;4.78;;;;;;;27.38;49.34;100507.50;5010511;28;20033;-73
2022/07/23 07:27:54;;;;;;;9.07;4.50;;;;;;;27.43;48.88;100488.84;5010376;28;20113;-73
2022/07/23 07:30:20;;;;;;;29.65;6.35;;;;;;;27.69;48.90;100510.94;5010470;28;20163;-74
2022/07/23 07:32:45;;;;;;;9.65;4.85;;;;;;;27.91;47.47;100505.78;5010307;28;20525;-74
2022/07/23 07:35:11;;;;;;;10.05;4.85;;;;;;;27.97;48.32;100502.06;5010182;28;20064;-74
2022/07/23 07:37:36;;;;;;;9.02;5.18;;;;;;;28.07;46.65;100500.84;5009833;28;20132;-74
2022/07/23 07:40:03;;;;;;;9.73;5.20;;;;;;;28.14;47.53;100502.38;5010313;28;20380;-74
2022/07/23 07:42:28;;;;;;;7.25;5.07;;;;;;;28.23;46.26;100488.75;5010216;28;20111;-73
2022/07/23 07:44:54;;;;;;;11.30;4.78;;;;;;;28.34;46.05;100495.47;5010429;28;20120;-74
2022/07/23 07:47:19;;;;;;;6.85;4.47;;;;;;;28.46;44.57;100479.06;5009796;28;20057;-73
2022/07/23 07:49:45;;;;;;;10.23;4.45;;;;;;;28.68;44.04;100487.13;5010220;28;20041;-76
2022/07/23 07:52:10;;;;;;;7.65;4.35;;;;;;;28.84;42.77;100494.50;5009805;28;20061;-74
2022/07/23 07:54:36;;;;;;;9.35;4.88;;;;;;;28.84;42.63;100481.22;4992298;28;20026;-73
2022/07/23 07:57:02;;;;;;;17.13;5.07;;;;;;;28.88;41.49;100501.44;5010028;28;20045;-73
2022/07/23 07:59:28;;;;;;;9.25;4.43;;;;;;;28.91;41.91;100485.34;5010269;28;20036;-74
2022/07/23 08:01:53;;;;;;;9.10;4.78;;;;;;;29.02;40.61;100490.25;5009993;28;20416;-74
2022/07/23 08:04:18;;;;;;;6.72;4.40;;;;;;;29.12;40.64;100496.06;5009846;28;20022;-75
2022/07/23 08:06:44;;;;;;;13.10;4.65;;;;;;;29.28;40.23;100491.00;5009631;28;20029;-76
2022/07/23 08:09:09;;;;;;;12.07;5.10;;;;;;;29.29;39.59;100484.78;5009857;28;20054;-75
2022/07/23 08:11:35;;;;;;;8.32;4.63;;;;;;;29.30;41.97;100494.50;5011959;28;20026;-73
2022/07/23 08:14:00;;;;;;;7.25;4.05;;;;;;;29.11;38.95;100481.91;5013910;28;20030;-75
2022/07/23 08:16:26;;;;;;;10.68;4.25;;;;;;;29.04;39.96;100467.13;5013890;28;20543;-74
2022/07/23 08:18:51;;;;;;;7.18;4.15;;;;;;;29.28;39.51;100480.38;5013578;28;20038;-74
2022/07/23 08:21:17;;;;;;;6.45;3.38;;;;;;;29.31;40.49;100485.56;5010960;28;20056;-74
2022/07/23 08:23:42;;;;;;;6.95;3.88;;;;;;;29.35;39.48;100477.41;5006790;28;20080;-75
2022/07/23 08:26:08;;;;;;;8.43;3.70;;;;;;;29.54;37.16;100477.50;5013363;28;20037;-74
2022/07/23 08:28:33;;;;;;;7.57;3.65;;;;;;;29.59;37.05;100474.66;5012974;28;20030;-76
2022/07/23 08:31:00;;;;;;;7.40;3.88;;;;;;;29.78;35.76;100466.72;5013061;28;20042;-74
2022/07/23 08:33:25;;;;;;;5.82;3.78;;;;;;;29.92;38.60;100467.97;5012961;28;20439;-75
2022/07/23 08:35:52;;;;;;;10.18;4.18;;;;;;;29.94;36.91;100464.31;5012911;28;20030;-74
2022/07/23 08:38:20;;;;;;;10.20;4.45;;;;;;;30.05;36.11;100450.53;5012381;28;20036;-73
2022/07/23 08:40:51;;;;;;;13.88;4.18;;;;;;;29.91;36.30;100413.00;5013607;28;20076;-74
2022/07/23 08:43:22;;;;;;;7.55;3.78;;;;;;;30.26;36.13;100456.69;5012634;28;20064;-74
2022/07/23 08:45:49;;;;;;;11.00;4.20;;;;;;;30.47;35.88;100459.31;5012806;28;20053;-74
2022/07/23 08:48:23;;;;;;;6.70;3.60;;;;;;;30.54;34.23;100433.25;4961382;28;20077;-73
2022/07/23 08:50:55;;;;;;;6.55;3.63;;;;;;;30.84;34.17;100462.03;5012239;28;20026;-74
2022/07/23 08:53:23;;;;;;;8.73;4.10;;;;;;;30.97;34.01;100465.84;5012529;28;20060;-74
2022/07/23 08:55:51;;;;;;;6.72;3.55;;;;;;;31.05;35.43;100455.66;5012741;28;20034;-75
2022/07/23 08:58:18;;;;;;;6.53;3.65;;;;;;;31.00;35.18;100448.84;5012575;28;20058;-75
2022/07/23 09:00:44;;;;;;;7.25;3.97;;;;;;;31.09;34.97;100456.41;5012484;28;20030;-74
2022/07/23 09:03:21;;;;;;;7.38;3.90;;;;;;;31.33;33.46;100450.78;5010541;28;20088;-73
2022/07/23 09:05:48;;;;;;;8.68;3.55;;;;;;;31.43;32.83;100434.25;5012832;28;20061;-77
2022/07/23 09:08:22;;;;;;;5.68;3.50;;;;;;;31.56;33.25;100444.28;5012090;28;20472;-74
2022/07/23 09:10:50;;;;;;;8.98;3.30;;;;;;;31.72;31.63;100441.72;5012268;28;20026;-73
2022/07/23 09:13:34;;;;;;;8.63;3.10;;;;;;;31.81;32.23;100438.56;5012512;28;20018;-74
2022/07/23 09:16:03;;;;;;;6.45;3.42;;;;;;;31.89;30.94;100438.16;5012031;28;20409;-75
2022/07/23 09:18:34;;;;;;;7.40;3.65;;;;;;;31.89;30.42;100430.16;5012301;28;20022;-74
2022/07/23 09:21:12;;;;;;;6.35;3.28;;;;;;;31.99;30.05;100433.19;5012103;28;20057;-74
2022/07/23 09:23:47;;;;;;;6.68;3.67;;;;;;;32.09;29.53;100429.09;5011542;28;20412;-72
2022/07/23 09:26:31;;;;;;;6.50;3.47;;;;;;;32.13;29.79;100416.41;5012313;28;20617;-73
2022/07/23 09:29:01;;;;;;;6.63;3.55;;;;;;;32.33;30.51;100424.25;5011876;28;20025;-74
2022/07/23 09:31:33;;;;;;;6.28;3.50;;;;;;;32.47;31.08;100422.63;5012294;28;20033;-74
2022/07/23 09:34:15;;;;;;;5.35;3.35;;;;;;;32.51;31.76;100402.78;5012075;28;20022;-74
2022/07/23 09:36:41;;;;;;;5.30;3.67;;;;;;;32.62;30.24;100383.50;5011641;28;20091;-73
2022/07/23 09:39:08;;;;;;;7.05;3.67;;;;;;;32.99;30.99;100408.16;5012185;28;20026;-74
2022/07/23 09:41:39;;;;;;;8.13;3.22;;;;;;;33.11;31.24;100394.06;5011620;28;20022;-76
2022/07/23 09:44:10;;;;;;;9.73;3.60;;;;;;;33.30;31.52;100401.88;4994029;28;20034;-76
2022/07/23 09:46:36;;;;;;;7.05;3.65;;;;;;;33.38;29.63;100404.09;5011490;28;20510;-72
2022/07/23 09:49:12;;;;;;;8.38;3.38;;;;;;;33.56;29.81;100396.78;5011606;28;20058;-73
2022/07/23 09:51:58;;;;;;;5.75;3.20;;;;;;;33.70;27.61;100406.63;5004300;28;20037;-72
2022/07/23 09:54:40;;;;;;;8.77;3.80;;;;;;;33.79;27.37;100399.84;5008964;28;20018;-73
2022/07/23 09:57:14;;;;;;;6.38;3.92;;;;;;;33.88;26.35;100374.34;5012217;28;20460;-74
2022/07/23 09:59:42;;;;;;;9.57;4.00;;;;;;;33.85;26.03;100348.63;5007404;28;20129;-71
2022/07/23 10:02:09;;;;;;;6.38;4.03;;;;;;;34.16;25.90;100387.72;4984306;28;20033;-73
2022/07/23 10:04:35;;;;;;;6.15;3.17;;;;;;;34.07;26.52;100380.28;4966758;28;20038;-73
2022/07/23 10:07:04;;;;;;;9.95;3.78;;;;;;;34.21;26.69;100391.91;4951521;28;20537;-72
2022/07/23 10:09:33;;;;;;;10.98;3.75;;;;;;;34.31;25.93;100380.50;5003127;28;20034;-73
2022/07/23 10:12:08;;;;;;;6.90;3.88;;;;;;;34.41;26.44;100383.50;4951521;28;20077;-73
2022/07/23 10:14:35;;;;;;;6.78;3.60;;;;;;;34.72;26.52;100385.97;5001067;28;20027;-71
2022/07/23 10:17:03;;;;;;;8.80;3.88;;;;;;;34.50;25.48;100353.38;5002103;28;20045;-72
2022/07/23 10:19:30;;;;;;;6.63;3.63;;;;;;;34.61;25.66;100363.41;5002842;28;20038;-73
2022/07/23 10:22:02;;;;;;;8.88;3.88;;;;;;;34.97;25.54;100370.00;5005921;28;20022;-74
2022/07/23 10:24:53;;;;;;;8.00;3.90;;;;;;;35.26;24.73;100367.16;5011676;28;20100;-73
2022/07/23 10:27:36;;;;;;;7.55;4.07;;;;;;;35.18;24.72;100313.16;5009914;28;20032;-73
2022/07/23 10:30:07;;;;;;;5.40;3.53;;;;;;;35.67;24.89;100359.06;5009942;28;20496;-73
2022/07/23 10:32:51;;;;;;;5.82;3.53;;;;;;;35.66;24.11;100355.50;5008612;28;20057;-73
2022/07/23 10:35:24;;;;;;;6.72;3.92;;;;;;;35.82;24.39;100354.41;5002834;28;20537;-74
2022/07/23 10:37:55;;;;;;;14.88;3.70;;;;;;;35.76;24.26;100324.31;5007013;28;20053;-74
2022/07/23 10:40:23;;;;;;;9.20;3.65;;;;;;;36.00;25.21;100326.22;5000365;28;20026;-74
2022/07/23 10:42:54;;;;;;;11.80;5.20;;;;;;;36.22;23.65;100347.03;5001345;28;20399;-75
2022/07/23 10:45:33;;;;;;;7.10;3.80;;;;;;;36.31;23.55;100334.75;5003962;28;20048;-74
2022/07/23 10:48:14;;;;;;;9.57;4.22;;;;;;;36.32;24.47;100338.31;5004258;28;20136;-74
2022/07/23 10:50:41;;;;;;;10.32;4.30;;;;;;;36.49;23.51;100334.38;5002042;28;20443;-73
2022/07/23 10:53:11;;;;;;;10.35;4.00;;;;;;;36.50;23.22;100328.91;5000406;28;20034;-74
2022/07/23 10:55:36;;;;;;;10.10;4.63;;;;;;;36.62;23.45;100328.97;5000011;28;20407;-73
2022/07/23 10:58:04;;;;;;;12.52;4.20;;;;;;;36.81;22.68;100314.97;5002139;28;20025;-74
2022/07/23 11:00:31;;;;;;;7.97;4.20;;;;;;;36.94;22.77;100318.47;5000888;28;20084;-74
2022/07/23 11:02:59;;;;;;;11.57;4.20;;;;;;;37.08;22.54;100295.88;5000811;28;20095;-75
2022/07/23 11:05:38;;;;;;;10.10;4.32;;;;;;;37.28;21.64;100290.75;4991680;28;20041;-73
2022/07/23 11:08:04;;;;;;;7.82;3.90;;;;;;;37.45;22.60;100302.91;4995989;28;20030;-74
2022/07/23 11:10:45;;;;;;;6.95;3.70;;;;;;;37.34;22.84;100269.63;4997604;28;20563;-73
2022/07/23 11:13:29;;;;;;;7.28;3.67;;;;;;;37.69;23.47;100302.78;5002340;28;20030;-73
2022/07/23 11:16:00;;;;;;;11.35;3.90;;;;;;;37.72;22.26;100298.03;4999575;28;20105;-73
2022/07/23 11:18:44;;;;;;;10.00;3.90;;;;;;;37.70;22.21;100274.88;4999592;28;20030;-73
2022/07/23 11:21:31;;;;;;;8.70;4.30;;;;;;;37.95;21.57;100291.78;5004433;28;20136;-73
2022/07/23 11:23:56;;;;;;;7.60;4.25;;;;;;;37.46;24.28;100289.34;4999052;28;20041;-73
2022/07/23 11:26:39;;;;;;;10.73;3.80;;;;;;;37.69;23.44;100289.31;5003490;28;20030;-72
2022/07/23 11:29:31;;;;;;;10.00;4.13;;;;;;;37.84;23.21;100279.19;4998444;28;20100;-73